sensor_id;sensor_type;location;lat;lon;timestamp;P1;durP1;ratioP1;P2;durP2;ratioP2
17265;SDS011;8749;47.076;15.412;2022-10-15T00:01:04;55.92;;;37.50;;
17265;SDS011;8749;47.076;15.412;2022-10-15T00:03:31;59.15;;;38.20;;
17265;SDS011;8749;47.076;15.412;2022-10-15T00:06:02;60.72;;;38.92;;
17265;SDS011;8749;47.076;15.412;2022-10-15T00:08:30;59.67;;;37.35;;
17265;SDS011;8749;47.076;15.412;2022-10-15T00:11:01;63.28;;;39.60;;
17265;SDS011;8749;47.076;15.412;2022-10-15T00:13:30;64.18;;;39.92;;
17265;SDS011;8749;47.076;15.412;2022-10-15T00:15:58;61.75;;;38.10;;
17265;SDS011;8749;47.076;15.412;2022-10-15T00:18:25;57.15;;;37.10;;
17265;SDS011;8749;47.076;15.412;2022-10-15T00:20:52;60.90;;;38.33;;
17265;SDS011;8749;47.076;15.412;2022-10-15T00:23:19;58.03;;;38.75;;
17265;SDS011;8749;47.076;15.412;2022-10-15T00:25:46;62.92;;;39.17;;
17265;SDS011;8749;47.076;15.412;2022-10-15T00:28:13;63.22;;;38.25;;
17265;SDS011;8749;47.076;15.412;2022-10-15T00:30:41;61.13;;;38.03;;
17265;SDS011;8749;47.076;15.412;2022-10-15T00:33:08;56.40;;;37.03;;
17265;SDS011;8749;47.076;15.412;2022-10-15T00:35:35;58.92;;;37.00;;
17265;SDS011;8749;47.076;15.412;2022-10-15T00:38:02;61.10;;;38.40;;
17265;SDS011;8749;47.076;15.412;2022-10-15T00:40:29;57.30;;;36.42;;
17265;SDS011;8749;47.076;15.412;2022-10-15T00:42:56;56.30;;;36.58;;
17265;SDS011;8749;47.076;15.412;2022-10-15T00:45:23;58.90;;;36.50;;
17265;SDS011;8749;47.076;15.412;2022-10-15T00:47:51;59.97;;;37.90;;
17265;SDS011;8749;47.076;15.412;2022-10-15T00:50:19;59.72;;;37.55;;
17265;SDS011;8749;47.076;15.412;2022-10-15T00:52:52;62.45;;;37.95;;
17265;SDS011;8749;47.076;15.412;2022-10-15T00:55:25;57.88;;;37.75;;
17265;SDS011;8749;47.076;15.412;2022-10-15T00:57:56;62.65;;;37.60;;
17265;SDS011;8749;47.076;15.412;2022-10-15T01:00:27;57.38;;;37.08;;
17265;SDS011;8749;47.076;15.412;2022-10-15T01:02:55;56.42;;;37.35;;
17265;SDS011;8749;47.076;15.412;2022-10-15T01:05:23;57.50;;;36.85;;
17265;SDS011;8749;47.076;15.412;2022-10-15T01:07:50;60.67;;;38.72;;
17265;SDS011;8749;47.076;15.412;2022-10-15T01:10:17;60.38;;;37.75;;
17265;SDS011;8749;47.076;15.412;2022-10-15T01:12:54;59.75;;;37.45;;
17265;SDS011;8749;47.076;15.412;2022-10-15T01:15:28;58.75;;;37.92;;
17265;SDS011;8749;47.076;15.412;2022-10-15T01:18:06;59.47;;;38.00;;
17265;SDS011;8749;47.076;15.412;2022-10-15T01:20:47;61.90;;;37.03;;
17265;SDS011;8749;47.076;15.412;2022-10-15T01:26:28;54.42;;;36.03;;
17265;SDS011;8749;47.076;15.412;2022-10-15T01:29:15;58.97;;;34.65;;
17265;SDS011;8749;47.076;15.412;2022-10-15T01:31:49;56.53;;;35.30;;
17265;SDS011;8749;47.076;15.412;2022-10-15T01:34:23;56.35;;;36.05;;
17265;SDS011;8749;47.076;15.412;2022-10-15T01:37:00;52.28;;;34.72;;
17265;SDS011;8749;47.076;15.412;2022-10-15T01:39:34;52.53;;;34.33;;
17265;SDS011;8749;47.076;15.412;2022-10-15T01:42:06;55.80;;;35.35;;
17265;SDS011;8749;47.076;15.412;2022-10-15T01:44:41;58.40;;;36.13;;
17265;SDS011;8749;47.076;15.412;2022-10-15T01:47:13;55.22;;;34.85;;
17265;SDS011;8749;47.076;15.412;2022-10-15T01:49:46;56.33;;;35.35;;
17265;SDS011;8749;47.076;15.412;2022-10-15T01:52:15;55.05;;;35.13;;
17265;SDS011;8749;47.076;15.412;2022-10-15T01:54:46;59.28;;;36.88;;
17265;SDS011;8749;47.076;15.412;2022-10-15T01:57:15;55.30;;;34.95;;
17265;SDS011;8749;47.076;15.412;2022-10-15T01:59:45;61.70;;;35.85;;
17265;SDS011;8749;47.076;15.412;2022-10-15T02:02:13;55.80;;;35.58;;
17265;SDS011;8749;47.076;15.412;2022-10-15T02:04:40;55.60;;;34.95;;
17265;SDS011;8749;47.076;15.412;2022-10-15T02:07:07;57.40;;;35.38;;
17265;SDS011;8749;47.076;15.412;2022-10-15T02:09:40;57.38;;;35.08;;
17265;SDS011;8749;47.076;15.412;2022-10-15T02:12:15;54.42;;;35.33;;
17265;SDS011;8749;47.076;15.412;2022-10-15T02:14:57;57.58;;;35.10;;
17265;SDS011;8749;47.076;15.412;2022-10-15T02:17:32;60.00;;;35.53;;
17265;SDS011;8749;47.076;15.412;2022-10-15T02:20:04;54.85;;;35.42;;
17265;SDS011;8749;47.076;15.412;2022-10-15T02:22:38;59.38;;;35.00;;
17265;SDS011;8749;47.076;15.412;2022-10-15T02:25:13;55.38;;;35.33;;
17265;SDS011;8749;47.076;15.412;2022-10-15T02:27:43;52.53;;;35.33;;
17265;SDS011;8749;47.076;15.412;2022-10-15T02:30:13;55.00;;;33.78;;
17265;SDS011;8749;47.076;15.412;2022-10-15T02:32:43;54.22;;;34.95;;
17265;SDS011;8749;47.076;15.412;2022-10-15T02:35:13;55.33;;;34.97;;
17265;SDS011;8749;47.076;15.412;2022-10-15T02:37:42;55.88;;;35.08;;
17265;SDS011;8749;47.076;15.412;2022-10-15T02:40:13;59.08;;;35.58;;
17265;SDS011;8749;47.076;15.412;2022-10-15T02:42:41;52.55;;;34.63;;
17265;SDS011;8749;47.076;15.412;2022-10-15T02:45:08;54.72;;;35.33;;
17265;SDS011;8749;47.076;15.412;2022-10-15T02:47:35;56.35;;;34.70;;
17265;SDS011;8749;47.076;15.412;2022-10-15T02:50:04;53.80;;;34.22;;
17265;SDS011;8749;47.076;15.412;2022-10-15T02:52:31;57.33;;;34.65;;
17265;SDS011;8749;47.076;15.412;2022-10-15T02:54:58;56.47;;;35.40;;
17265;SDS011;8749;47.076;15.412;2022-10-15T02:57:25;55.28;;;35.35;;
17265;SDS011;8749;47.076;15.412;2022-10-15T02:59:52;53.45;;;34.83;;
17265;SDS011;8749;47.076;15.412;2022-10-15T03:02:19;55.70;;;34.33;;
17265;SDS011;8749;47.076;15.412;2022-10-15T03:04:46;58.50;;;35.10;;
17265;SDS011;8749;47.076;15.412;2022-10-15T03:07:14;58.65;;;35.05;;
17265;SDS011;8749;47.076;15.412;2022-10-15T03:09:41;52.80;;;35.42;;
17265;SDS011;8749;47.076;15.412;2022-10-15T03:12:08;60.20;;;35.20;;
17265;SDS011;8749;47.076;15.412;2022-10-15T03:14:35;54.80;;;34.80;;
17265;SDS011;8749;47.076;15.412;2022-10-15T03:17:02;53.75;;;34.35;;
17265;SDS011;8749;47.076;15.412;2022-10-15T03:19:29;58.17;;;34.25;;
17265;SDS011;8749;47.076;15.412;2022-10-15T03:21:56;56.22;;;36.80;;
17265;SDS011;8749;47.076;15.412;2022-10-15T03:24:24;54.45;;;34.35;;
17265;SDS011;8749;47.076;15.412;2022-10-15T03:26:51;57.25;;;34.08;;
17265;SDS011;8749;47.076;15.412;2022-10-15T03:29:18;52.85;;;34.72;;
17265;SDS011;8749;47.076;15.412;2022-10-15T03:31:45;59.05;;;34.25;;
17265;SDS011;8749;47.076;15.412;2022-10-15T03:34:12;52.65;;;35.00;;
17265;SDS011;8749;47.076;15.412;2022-10-15T03:36:39;55.95;;;36.35;;
17265;SDS011;8749;47.076;15.412;2022-10-15T03:39:06;55.65;;;35.25;;
17265;SDS011;8749;47.076;15.412;2022-10-15T03:41:35;56.10;;;35.60;;
17265;SDS011;8749;47.076;15.412;2022-10-15T03:44:02;54.53;;;34.22;;
17265;SDS011;8749;47.076;15.412;2022-10-15T03:46:30;61.58;;;37.42;;
17265;SDS011;8749;47.076;15.412;2022-10-15T03:48:57;56.67;;;36.97;;
17265;SDS011;8749;47.076;15.412;2022-10-15T03:51:25;55.63;;;35.55;;
17265;SDS011;8749;47.076;15.412;2022-10-15T03:53:52;56.75;;;36.90;;
17265;SDS011;8749;47.076;15.412;2022-10-15T03:56:19;58.88;;;36.38;;
17265;SDS011;8749;47.076;15.412;2022-10-15T03:58:47;57.70;;;37.30;;
17265;SDS011;8749;47.076;15.412;2022-10-15T04:01:15;61.17;;;37.45;;
17265;SDS011;8749;47.076;15.412;2022-10-15T04:03:43;65.07;;;41.85;;
17265;SDS011;8749;47.076;15.412;2022-10-15T04:06:10;70.80;;;44.63;;
17265;SDS011;8749;47.076;15.412;2022-10-15T04:08:38;65.28;;;39.40;;
17265;SDS011;8749;47.076;15.412;2022-10-15T04:11:05;59.10;;;37.05;;
17265;SDS011;8749;47.076;15.412;2022-10-15T04:13:32;58.00;;;35.65;;
17265;SDS011;8749;47.076;15.412;2022-10-15T04:16:02;58.50;;;35.88;;
17265;SDS011;8749;47.076;15.412;2022-10-15T04:18:29;54.72;;;35.70;;
17265;SDS011;8749;47.076;15.412;2022-10-15T04:20:57;60.00;;;39.72;;
17265;SDS011;8749;47.076;15.412;2022-10-15T04:23:24;63.92;;;38.33;;
17265;SDS011;8749;47.076;15.412;2022-10-15T04:25:51;58.25;;;35.72;;
17265;SDS011;8749;47.076;15.412;2022-10-15T04:28:18;57.25;;;35.95;;
17265;SDS011;8749;47.076;15.412;2022-10-15T04:30:45;58.13;;;35.88;;
17265;SDS011;8749;47.076;15.412;2022-10-15T04:33:14;53.72;;;35.38;;
17265;SDS011;8749;47.076;15.412;2022-10-15T04:35:41;53.08;;;34.35;;
17265;SDS011;8749;47.076;15.412;2022-10-15T04:38:08;50.78;;;33.95;;
17265;SDS011;8749;47.076;15.412;2022-10-15T04:40:35;53.72;;;34.65;;
17265;SDS011;8749;47.076;15.412;2022-10-15T04:43:02;56.40;;;34.22;;
17265;SDS011;8749;47.076;15.412;2022-10-15T04:45:29;52.00;;;34.00;;
17265;SDS011;8749;47.076;15.412;2022-10-15T04:47:56;51.83;;;34.30;;
17265;SDS011;8749;47.076;15.412;2022-10-15T04:50:24;52.88;;;33.45;;
17265;SDS011;8749;47.076;15.412;2022-10-15T04:52:51;55.00;;;33.00;;
17265;SDS011;8749;47.076;15.412;2022-10-15T04:55:18;53.05;;;33.70;;
17265;SDS011;8749;47.076;15.412;2022-10-15T04:57:45;51.88;;;32.95;;
17265;SDS011;8749;47.076;15.412;2022-10-15T05:00:12;57.75;;;34.67;;
17265;SDS011;8749;47.076;15.412;2022-10-15T05:02:40;62.97;;;38.67;;
17265;SDS011;8749;47.076;15.412;2022-10-15T05:05:08;61.95;;;39.60;;
17265;SDS011;8749;47.076;15.412;2022-10-15T05:07:36;74.03;;;48.28;;
17265;SDS011;8749;47.076;15.412;2022-10-15T05:10:03;76.82;;;48.17;;
17265;SDS011;8749;47.076;15.412;2022-10-15T05:12:31;63.35;;;41.60;;
17265;SDS011;8749;47.076;15.412;2022-10-15T05:14:58;58.70;;;39.22;;
17265;SDS011;8749;47.076;15.412;2022-10-15T05:17:25;57.75;;;38.10;;
17265;SDS011;8749;47.076;15.412;2022-10-15T05:19:51;56.42;;;38.15;;
17265;SDS011;8749;47.076;15.412;2022-10-15T05:22:18;57.47;;;35.95;;
17265;SDS011;8749;47.076;15.412;2022-10-15T05:24:47;55.22;;;35.85;;
17265;SDS011;8749;47.076;15.412;2022-10-15T05:27:14;54.40;;;36.10;;
17265;SDS011;8749;47.076;15.412;2022-10-15T05:29:40;56.03;;;36.70;;
17265;SDS011;8749;47.076;15.412;2022-10-15T05:32:07;57.15;;;36.53;;
17265;SDS011;8749;47.076;15.412;2022-10-15T05:34:34;60.30;;;38.70;;
17265;SDS011;8749;47.076;15.412;2022-10-15T05:37:01;63.50;;;40.92;;
17265;SDS011;8749;47.076;15.412;2022-10-15T05:39:28;68.82;;;42.55;;
17265;SDS011;8749;47.076;15.412;2022-10-15T05:41:56;60.33;;;38.35;;
17265;SDS011;8749;47.076;15.412;2022-10-15T05:44:23;59.53;;;36.25;;
17265;SDS011;8749;47.076;15.412;2022-10-15T05:46:50;55.85;;;34.35;;
17265;SDS011;8749;47.076;15.412;2022-10-15T05:49:17;52.08;;;35.55;;
17265;SDS011;8749;47.076;15.412;2022-10-15T05:51:44;52.33;;;34.85;;
17265;SDS011;8749;47.076;15.412;2022-10-15T05:54:11;57.80;;;37.92;;
17265;SDS011;8749;47.076;15.412;2022-10-15T05:56:38;57.33;;;36.22;;
17265;SDS011;8749;47.076;15.412;2022-10-15T05:59:06;54.30;;;34.53;;
17265;SDS011;8749;47.076;15.412;2022-10-15T06:01:33;51.92;;;35.00;;
17265;SDS011;8749;47.076;15.412;2022-10-15T06:04:01;57.58;;;34.40;;
17265;SDS011;8749;47.076;15.412;2022-10-15T06:06:28;67.18;;;41.25;;
17265;SDS011;8749;47.076;15.412;2022-10-15T06:08:57;60.42;;;39.67;;
17265;SDS011;8749;47.076;15.412;2022-10-15T06:11:25;63.05;;;39.25;;
17265;SDS011;8749;47.076;15.412;2022-10-15T06:13:52;55.88;;;36.17;;
17265;SDS011;8749;47.076;15.412;2022-10-15T06:16:21;52.55;;;34.75;;
17265;SDS011;8749;47.076;15.412;2022-10-15T06:18:48;54.03;;;33.72;;
17265;SDS011;8749;47.076;15.412;2022-10-15T06:21:16;49.50;;;33.58;;
17265;SDS011;8749;47.076;15.412;2022-10-15T06:23:43;50.53;;;32.63;;
17265;SDS011;8749;47.076;15.412;2022-10-15T06:26:10;56.15;;;35.13;;
17265;SDS011;8749;47.076;15.412;2022-10-15T06:28:38;55.83;;;35.85;;
17265;SDS011;8749;47.076;15.412;2022-10-15T06:31:05;54.03;;;35.88;;
17265;SDS011;8749;47.076;15.412;2022-10-15T06:33:34;52.63;;;36.13;;
17265;SDS011;8749;47.076;15.412;2022-10-15T06:36:01;56.53;;;38.47;;
17265;SDS011;8749;47.076;15.412;2022-10-15T06:38:29;56.05;;;38.67;;
17265;SDS011;8749;47.076;15.412;2022-10-15T06:40:56;52.15;;;35.88;;
17265;SDS011;8749;47.076;15.412;2022-10-15T06:43:24;53.55;;;36.00;;
17265;SDS011;8749;47.076;15.412;2022-10-15T06:45:51;53.53;;;35.92;;
17265;SDS011;8749;47.076;15.412;2022-10-15T06:48:18;53.20;;;35.60;;
17265;SDS011;8749;47.076;15.412;2022-10-15T06:50:46;55.40;;;37.45;;
17265;SDS011;8749;47.076;15.412;2022-10-15T06:53:13;53.08;;;36.58;;
17265;SDS011;8749;47.076;15.412;2022-10-15T06:55:40;55.05;;;38.08;;
17265;SDS011;8749;47.076;15.412;2022-10-15T06:58:10;51.67;;;35.83;;
17265;SDS011;8749;47.076;15.412;2022-10-15T07:00:37;53.22;;;37.25;;
17265;SDS011;8749;47.076;15.412;2022-10-15T07:03:04;52.95;;;36.90;;
17265;SDS011;8749;47.076;15.412;2022-10-15T07:05:32;54.33;;;36.40;;
17265;SDS011;8749;47.076;15.412;2022-10-15T07:08:01;55.05;;;36.85;;
17265;SDS011;8749;47.076;15.412;2022-10-15T07:10:28;63.10;;;41.15;;
17265;SDS011;8749;47.076;15.412;2022-10-15T07:12:55;55.65;;;38.05;;
17265;SDS011;8749;47.076;15.412;2022-10-15T07:15:24;55.92;;;36.85;;
17265;SDS011;8749;47.076;15.412;2022-10-15T07:17:52;55.50;;;37.13;;
17265;SDS011;8749;47.076;15.412;2022-10-15T07:20:25;54.28;;;35.60;;
17265;SDS011;8749;47.076;15.412;2022-10-15T07:22:54;54.85;;;36.72;;
17265;SDS011;8749;47.076;15.412;2022-10-15T07:25:23;54.25;;;36.28;;
17265;SDS011;8749;47.076;15.412;2022-10-15T07:27:50;57.20;;;36.92;;
17265;SDS011;8749;47.076;15.412;2022-10-15T07:30:19;57.92;;;37.72;;
17265;SDS011;8749;47.076;15.412;2022-10-15T07:32:46;52.75;;;35.65;;
17265;SDS011;8749;47.076;15.412;2022-10-15T07:35:13;52.08;;;36.50;;
17265;SDS011;8749;47.076;15.412;2022-10-15T07:37:41;58.35;;;37.42;;
17265;SDS011;8749;47.076;15.412;2022-10-15T07:40:08;59.42;;;39.53;;
17265;SDS011;8749;47.076;15.412;2022-10-15T07:42:37;60.72;;;40.90;;
17265;SDS011;8749;47.076;15.412;2022-10-15T07:45:05;58.80;;;39.67;;
17265;SDS011;8749;47.076;15.412;2022-10-15T07:47:32;61.03;;;39.17;;
17265;SDS011;8749;47.076;15.412;2022-10-15T07:49:59;69.28;;;39.35;;
17265;SDS011;8749;47.076;15.412;2022-10-15T07:52:26;56.60;;;37.95;;
17265;SDS011;8749;47.076;15.412;2022-10-15T07:54:53;58.50;;;38.42;;
17265;SDS011;8749;47.076;15.412;2022-10-15T07:57:20;60.67;;;36.58;;
17265;SDS011;8749;47.076;15.412;2022-10-15T07:59:48;57.63;;;36.63;;
17265;SDS011;8749;47.076;15.412;2022-10-15T08:02:15;53.25;;;37.25;;
17265;SDS011;8749;47.076;15.412;2022-10-15T08:04:44;55.85;;;36.47;;
17265;SDS011;8749;47.076;15.412;2022-10-15T08:07:11;51.33;;;35.40;;
17265;SDS011;8749;47.076;15.412;2022-10-15T08:09:38;59.88;;;37.88;;
17265;SDS011;8749;47.076;15.412;2022-10-15T08:12:05;58.05;;;38.15;;
17265;SDS011;8749;47.076;15.412;2022-10-15T08:14:32;56.28;;;37.15;;
17265;SDS011;8749;47.076;15.412;2022-10-15T08:17:01;55.80;;;37.85;;
17265;SDS011;8749;47.076;15.412;2022-10-15T08:19:29;56.55;;;37.17;;
17265;SDS011;8749;47.076;15.412;2022-10-15T08:21:56;80.68;;;52.10;;
17265;SDS011;8749;47.076;15.412;2022-10-15T08:24:23;119.85;;;74.00;;
17265;SDS011;8749;47.076;15.412;2022-10-15T08:26:50;100.70;;;63.40;;
17265;SDS011;8749;47.076;15.412;2022-10-15T08:29:17;77.45;;;49.55;;
17265;SDS011;8749;47.076;15.412;2022-10-15T08:31:44;66.57;;;43.90;;
17265;SDS011;8749;47.076;15.412;2022-10-15T08:34:12;64.80;;;41.13;;
17265;SDS011;8749;47.076;15.412;2022-10-15T08:36:39;55.42;;;37.45;;
17265;SDS011;8749;47.076;15.412;2022-10-15T08:39:06;60.85;;;39.80;;
17265;SDS011;8749;47.076;15.412;2022-10-15T08:41:35;57.65;;;37.17;;
17265;SDS011;8749;47.076;15.412;2022-10-15T08:44:05;54.63;;;37.47;;
17265;SDS011;8749;47.076;15.412;2022-10-15T08:46:38;59.78;;;37.47;;
17265;SDS011;8749;47.076;15.412;2022-10-15T08:49:12;55.10;;;37.63;;
17265;SDS011;8749;47.076;15.412;2022-10-15T08:51:50;56.72;;;37.28;;
17265;SDS011;8749;47.076;15.412;2022-10-15T08:54:20;58.10;;;38.45;;
17265;SDS011;8749;47.076;15.412;2022-10-15T08:56:48;57.95;;;36.60;;
17265;SDS011;8749;47.076;15.412;2022-10-15T08:59:24;55.80;;;37.13;;
17265;SDS011;8749;47.076;15.412;2022-10-15T09:01:57;54.88;;;36.88;;
17265;SDS011;8749;47.076;15.412;2022-10-15T09:04:29;59.45;;;37.75;;
17265;SDS011;8749;47.076;15.412;2022-10-15T09:07:03;55.30;;;36.95;;
17265;SDS011;8749;47.076;15.412;2022-10-15T09:09:39;60.50;;;37.25;;
17265;SDS011;8749;47.076;15.412;2022-10-15T09:12:17;54.70;;;36.95;;
17265;SDS011;8749;47.076;15.412;2022-10-15T09:14:58;56.85;;;37.58;;
17265;SDS011;8749;47.076;15.412;2022-10-15T09:17:26;58.60;;;36.75;;
17265;SDS011;8749;47.076;15.412;2022-10-15T09:20:03;57.63;;;37.75;;
17265;SDS011;8749;47.076;15.412;2022-10-15T09:22:32;57.15;;;37.47;;
17265;SDS011;8749;47.076;15.412;2022-10-15T09:25:03;54.42;;;36.83;;
17265;SDS011;8749;47.076;15.412;2022-10-15T09:27:39;55.25;;;37.40;;
17265;SDS011;8749;47.076;15.412;2022-10-15T09:30:12;55.50;;;36.97;;
17265;SDS011;8749;47.076;15.412;2022-10-15T09:32:50;58.80;;;37.28;;
17265;SDS011;8749;47.076;15.412;2022-10-15T09:35:25;55.25;;;36.40;;
17265;SDS011;8749;47.076;15.412;2022-10-15T09:37:56;58.05;;;37.17;;
17265;SDS011;8749;47.076;15.412;2022-10-15T09:40:41;57.03;;;37.55;;
17265;SDS011;8749;47.076;15.412;2022-10-15T09:43:19;55.00;;;36.35;;
17265;SDS011;8749;47.076;15.412;2022-10-15T09:45:52;54.60;;;35.95;;
17265;SDS011;8749;47.076;15.412;2022-10-15T09:48:19;55.83;;;37.55;;
17265;SDS011;8749;47.076;15.412;2022-10-15T09:50:51;57.60;;;37.05;;
17265;SDS011;8749;47.076;15.412;2022-10-15T09:53:22;54.90;;;35.85;;
17265;SDS011;8749;47.076;15.412;2022-10-15T09:55:59;57.70;;;37.72;;
17265;SDS011;8749;47.076;15.412;2022-10-15T09:58:32;55.83;;;36.58;;
17265;SDS011;8749;47.076;15.412;2022-10-15T10:01:06;58.42;;;35.05;;
17265;SDS011;8749;47.076;15.412;2022-10-15T10:03:41;53.83;;;36.17;;
17265;SDS011;8749;47.076;15.412;2022-10-15T10:06:10;58.65;;;38.40;;
17265;SDS011;8749;47.076;15.412;2022-10-15T10:08:39;59.20;;;38.22;;
17265;SDS011;8749;47.076;15.412;2022-10-15T10:11:13;58.65;;;39.05;;
17265;SDS011;8749;47.076;15.412;2022-10-15T10:13:44;59.97;;;39.20;;
17265;SDS011;8749;47.076;15.412;2022-10-15T10:16:17;66.25;;;41.97;;
17265;SDS011;8749;47.076;15.412;2022-10-15T10:19:02;75.78;;;47.50;;
17265;SDS011;8749;47.076;15.412;2022-10-15T10:21:35;74.15;;;47.33;;
17265;SDS011;8749;47.076;15.412;2022-10-15T10:24:17;67.55;;;44.40;;
17265;SDS011;8749;47.076;15.412;2022-10-15T10:26:54;62.65;;;39.30;;
17265;SDS011;8749;47.076;15.412;2022-10-15T10:29:23;56.70;;;37.55;;
17265;SDS011;8749;47.076;15.412;2022-10-15T10:31:52;59.42;;;37.70;;
17265;SDS011;8749;47.076;15.412;2022-10-15T10:34:20;54.83;;;36.70;;
17265;SDS011;8749;47.076;15.412;2022-10-15T10:36:53;57.15;;;37.67;;
17265;SDS011;8749;47.076;15.412;2022-10-15T10:39:24;57.17;;;37.92;;
17265;SDS011;8749;47.076;15.412;2022-10-15T10:41:53;55.30;;;36.90;;
17265;SDS011;8749;47.076;15.412;2022-10-15T10:44:26;57.28;;;36.55;;
17265;SDS011;8749;47.076;15.412;2022-10-15T10:47:07;58.88;;;38.03;;
17265;SDS011;8749;47.076;15.412;2022-10-15T10:49:38;56.58;;;37.47;;
17265;SDS011;8749;47.076;15.412;2022-10-15T10:52:22;57.28;;;38.35;;
17265;SDS011;8749;47.076;15.412;2022-10-15T10:54:52;59.25;;;38.65;;
17265;SDS011;8749;47.076;15.412;2022-10-15T10:57:27;55.10;;;36.78;;
17265;SDS011;8749;47.076;15.412;2022-10-15T11:00:07;59.33;;;38.97;;
17265;SDS011;8749;47.076;15.412;2022-10-15T11:02:40;57.92;;;39.53;;
17265;SDS011;8749;47.076;15.412;2022-10-15T11:05:08;59.58;;;38.60;;
17265;SDS011;8749;47.076;15.412;2022-10-15T11:07:38;57.28;;;37.53;;
17265;SDS011;8749;47.076;15.412;2022-10-15T11:10:22;61.15;;;39.13;;
17265;SDS011;8749;47.076;15.412;2022-10-15T11:13:02;59.35;;;39.17;;
17265;SDS011;8749;47.076;15.412;2022-10-15T11:16:03;61.00;;;39.78;;
17265;SDS011;8749;47.076;15.412;2022-10-15T11:21:32;61.65;;;40.13;;
17265;SDS011;8749;47.076;15.412;2022-10-15T11:24:10;59.17;;;39.63;;
17265;SDS011;8749;47.076;15.412;2022-10-15T11:26:44;64.35;;;42.65;;
17265;SDS011;8749;47.076;15.412;2022-10-15T11:29:31;66.22;;;42.72;;
17265;SDS011;8749;47.076;15.412;2022-10-15T11:32:12;59.47;;;40.47;;
17265;SDS011;8749;47.076;15.412;2022-10-15T11:34:57;59.72;;;37.95;;
17265;SDS011;8749;47.076;15.412;2022-10-15T11:37:40;53.85;;;36.45;;
17265;SDS011;8749;47.076;15.412;2022-10-15T11:40:20;56.72;;;37.72;;
17265;SDS011;8749;47.076;15.412;2022-10-15T11:42:57;60.30;;;37.83;;
17265;SDS011;8749;47.076;15.412;2022-10-15T11:45:39;52.72;;;36.22;;
17265;SDS011;8749;47.076;15.412;2022-10-15T11:48:32;53.95;;;37.30;;
17265;SDS011;8749;47.076;15.412;2022-10-15T11:51:08;54.83;;;36.13;;
17265;SDS011;8749;47.076;15.412;2022-10-15T11:53:48;58.60;;;37.33;;
17265;SDS011;8749;47.076;15.412;2022-10-15T11:56:33;51.10;;;34.92;;
17265;SDS011;8749;47.076;15.412;2022-10-15T11:59:03;52.45;;;35.70;;
17265;SDS011;8749;47.076;15.412;2022-10-15T12:01:42;51.60;;;35.22;;
17265;SDS011;8749;47.076;15.412;2022-10-15T12:04:16;51.22;;;35.15;;
17265;SDS011;8749;47.076;15.412;2022-10-15T12:06:51;53.60;;;35.75;;
17265;SDS011;8749;47.076;15.412;2022-10-15T12:09:23;52.83;;;35.53;;
17265;SDS011;8749;47.076;15.412;2022-10-15T12:11:57;51.45;;;34.63;;
17265;SDS011;8749;47.076;15.412;2022-10-15T12:14:33;53.92;;;36.35;;
17265;SDS011;8749;47.076;15.412;2022-10-15T12:17:07;54.63;;;38.65;;
17265;SDS011;8749;47.076;15.412;2022-10-15T12:19:42;52.65;;;36.92;;
17265;SDS011;8749;47.076;15.412;2022-10-15T12:22:31;51.97;;;35.40;;
17265;SDS011;8749;47.076;15.412;2022-10-15T12:24:59;54.03;;;35.78;;
17265;SDS011;8749;47.076;15.412;2022-10-15T12:27:30;51.53;;;34.17;;
17265;SDS011;8749;47.076;15.412;2022-10-15T12:32:58;49.25;;;34.17;;
17265;SDS011;8749;47.076;15.412;2022-10-15T12:35:31;46.38;;;32.90;;
17265;SDS011;8749;47.076;15.412;2022-10-15T12:38:20;50.38;;;33.90;;
17265;SDS011;8749;47.076;15.412;2022-10-15T12:40:54;45.90;;;32.65;;
17265;SDS011;8749;47.076;15.412;2022-10-15T12:43:25;47.65;;;33.10;;
17265;SDS011;8749;47.076;15.412;2022-10-15T12:45:55;48.10;;;34.25;;
17265;SDS011;8749;47.076;15.412;2022-10-15T12:48:29;50.30;;;33.17;;
17265;SDS011;8749;47.076;15.412;2022-10-15T13:03:21;48.45;;;31.95;;
17265;SDS011;8749;47.076;15.412;2022-10-15T13:08:52;46.53;;;32.50;;
17265;SDS011;8749;47.076;15.412;2022-10-15T13:11:23;47.75;;;32.60;;
17265;SDS011;8749;47.076;15.412;2022-10-15T13:13:54;49.78;;;33.15;;
17265;SDS011;8749;47.076;15.412;2022-10-15T13:16:26;45.55;;;31.83;;
17265;SDS011;8749;47.076;15.412;2022-10-15T13:18:54;44.08;;;30.95;;
17265;SDS011;8749;47.076;15.412;2022-10-15T13:24:13;48.83;;;35.05;;
17265;SDS011;8749;47.076;15.412;2022-10-15T13:26:43;50.25;;;36.17;;
17265;SDS011;8749;47.076;15.412;2022-10-15T13:29:12;49.75;;;35.13;;
17265;SDS011;8749;47.076;15.412;2022-10-15T13:31:42;49.35;;;34.13;;
17265;SDS011;8749;47.076;15.412;2022-10-15T13:34:13;47.97;;;32.20;;
17265;SDS011;8749;47.076;15.412;2022-10-15T13:36:56;50.97;;;34.03;;
17265;SDS011;8749;47.076;15.412;2022-10-15T13:39:29;51.33;;;35.78;;
17265;SDS011;8749;47.076;15.412;2022-10-15T13:42:08;47.85;;;33.20;;
17265;SDS011;8749;47.076;15.412;2022-10-15T13:44:39;42.80;;;31.08;;
17265;SDS011;8749;47.076;15.412;2022-10-15T13:47:26;45.30;;;30.42;;
17265;SDS011;8749;47.076;15.412;2022-10-15T13:50:11;42.30;;;31.63;;
17265;SDS011;8749;47.076;15.412;2022-10-15T13:52:45;43.55;;;30.15;;
17265;SDS011;8749;47.076;15.412;2022-10-15T13:55:17;42.90;;;30.85;;
17265;SDS011;8749;47.076;15.412;2022-10-15T13:57:46;41.20;;;29.85;;
17265;SDS011;8749;47.076;15.412;2022-10-15T14:00:20;39.65;;;29.23;;
17265;SDS011;8749;47.076;15.412;2022-10-15T14:03:06;43.25;;;29.38;;
17265;SDS011;8749;47.076;15.412;2022-10-15T14:05:41;38.38;;;28.55;;
17265;SDS011;8749;47.076;15.412;2022-10-15T14:08:17;43.67;;;30.60;;
17265;SDS011;8749;47.076;15.412;2022-10-15T14:10:48;60.22;;;41.28;;
17265;SDS011;8749;47.076;15.412;2022-10-15T14:13:16;60.78;;;45.67;;
17265;SDS011;8749;47.076;15.412;2022-10-15T14:15:46;61.97;;;43.95;;
17265;SDS011;8749;47.076;15.412;2022-10-15T14:18:27;47.08;;;34.95;;
17265;SDS011;8749;47.076;15.412;2022-10-15T14:20:57;42.00;;;30.58;;
17265;SDS011;8749;47.076;15.412;2022-10-15T14:23:25;38.42;;;28.30;;
17265;SDS011;8749;47.076;15.412;2022-10-15T14:25:57;33.45;;;26.70;;
17265;SDS011;8749;47.076;15.412;2022-10-15T14:28:29;33.97;;;26.58;;
17265;SDS011;8749;47.076;15.412;2022-10-15T14:30:59;33.05;;;25.95;;
17265;SDS011;8749;47.076;15.412;2022-10-15T14:33:38;35.17;;;25.83;;
17265;SDS011;8749;47.076;15.412;2022-10-15T14:36:21;34.65;;;26.10;;
17265;SDS011;8749;47.076;15.412;2022-10-15T14:38:50;34.25;;;25.15;;
17265;SDS011;8749;47.076;15.412;2022-10-15T14:41:23;32.50;;;25.73;;
17265;SDS011;8749;47.076;15.412;2022-10-15T14:44:03;34.42;;;26.73;;
17265;SDS011;8749;47.076;15.412;2022-10-15T14:46:48;32.67;;;25.13;;
17265;SDS011;8749;47.076;15.412;2022-10-15T14:49:21;33.97;;;26.35;;
17265;SDS011;8749;47.076;15.412;2022-10-15T14:51:53;36.00;;;26.55;;
17265;SDS011;8749;47.076;15.412;2022-10-15T14:54:24;37.95;;;25.92;;
17265;SDS011;8749;47.076;15.412;2022-10-15T14:56:57;36.88;;;27.10;;
17265;SDS011;8749;47.076;15.412;2022-10-15T14:59:27;37.17;;;28.08;;
17265;SDS011;8749;47.076;15.412;2022-10-15T15:01:58;35.85;;;27.77;;
17265;SDS011;8749;47.076;15.412;2022-10-15T15:04:40;39.00;;;27.35;;
17265;SDS011;8749;47.076;15.412;2022-10-15T15:07:09;33.83;;;26.48;;
17265;SDS011;8749;47.076;15.412;2022-10-15T15:09:39;34.25;;;26.45;;